Norfolk, Virginia
Traffic Map
Current Weather Conditions
Norfolk, Virginia
Overcast
Overcast
46°
Feels Like: 41°
Wind Chill: 41° Ceiling: 1700
Heat Index: 46° Visibility: 10mi
Dew Point: 38° Wind: 12mph
Humidity: 73% Direction: 30° (NNE)
Pressure: 30.45in Gusts: 0mph
Raw Report DataKORF 181351Z AUTO 03010KT 10SM OVC017 08/03 A3045 RMK AO2 SLP312 T00780033 TSNO
Traffic Incident Summary
Active as of:
Severity:
Category:
InformationThere was an issue retrieving the traffic information for this location. Please try a different location or try again shortly.
Advertisements
At Last! Intellicast now available for iPhone and Android